Time;durP1;ratioP1;P1;durP2;ratioP2;P2;SDS_P1;SDS_P2;PMS_P1;PMS_P2;Temp;Humidity;BMP_temperature;BMP_pressure;BME280_temperature;BME280_humidity;BME280_pressure;Samples;Min_cycle;Max_cycle;Signal;HPM_P1;HPM_P2
2023/10/20 00:00:19;;;;;;;3.08;1.45;;;;;;;;;;5036434;28;20087;-61
2023/10/20 00:02:45;;;;;;;2.67;1.35;;;;;;;;;;5033847;28;20376;-61
2023/10/20 00:05:10;;;;;;;2.55;1.30;;;;;;;;;;5031057;28;20037;-61
2023/10/20 00:07:36;;;;;;;2.60;1.40;;;;;;;;;;5033552;28;20088;-60
2023/10/20 00:10:03;;;;;;;3.05;1.40;;;;;;;;;;5030859;28;20114;-61
2023/10/20 00:12:29;;;;;;;2.80;1.30;;;;;;;;;;5032249;28;20068;-61
2023/10/20 00:14:55;;;;;;;1.95;0.90;;;;;;;;;;5035175;28;20549;-61
2023/10/20 00:17:21;;;;;;;2.60;1.10;;;;;;;;;;5033733;28;20041;-61
2023/10/20 00:19:47;;;;;;;2.55;1.30;;;;;;;;;;5032198;28;20537;-60
2023/10/20 00:22:13;;;;;;;2.42;1.35;;;;;;;;;;5034842;28;20064;-61
2023/10/20 00:24:39;;;;;;;4.22;1.35;;;;;;;;;;5036968;28;20060;-60
2023/10/20 00:27:04;;;;;;;2.38;1.17;;;;;;;;;;5032974;28;20045;-61
2023/10/20 00:29:30;;;;;;;2.47;1.30;;;;;;;;;;5033230;28;20605;-60
2023/10/20 00:31:56;;;;;;;2.45;1.23;;;;;;;;;;5035206;28;20041;-60
2023/10/20 00:34:21;;;;;;;2.70;1.30;;;;;;;;;;5034865;28;20041;-59
2023/10/20 00:36:47;;;;;;;2.38;1.17;;;;;;;;;;5034451;28;20465;-58
2023/10/20 00:39:12;;;;;;;2.50;0.98;;;;;;;;;;5032106;28;20029;-61
2023/10/20 00:41:38;;;;;;;2.95;1.10;;;;;;;;;;5037308;28;20025;-60
2023/10/20 00:44:04;;;;;;;2.85;1.20;;;;;;;;;;5036181;28;20113;-60
2023/10/20 00:46:30;;;;;;;3.45;1.40;;;;;;;;;;5034987;28;20087;-60
2023/10/20 00:48:56;;;;;;;2.40;1.20;;;;;;;;;;5031501;28;20068;-61
2023/10/20 00:51:24;;;;;;;2.35;1.13;;;;;;;;;;5032771;28;20076;-61
2023/10/20 00:53:50;;;;;;;2.17;1.10;;;;;;;;;;5033834;28;20072;-61
2023/10/20 00:56:16;;;;;;;2.50;1.20;;;;;;;;;;5032960;28;20025;-60
2023/10/20 00:58:42;;;;;;;2.53;1.15;;;;;;;;;;5037789;28;20588;-61
2023/10/20 01:01:08;;;;;;;2.22;1.20;;;;;;;;;;5031374;28;20072;-60
2023/10/20 01:03:35;;;;;;;3.03;1.42;;;;;;;;;;5032104;28;20049;-61
2023/10/20 01:06:02;;;;;;;2.20;1.10;;;;;;;;;;5032351;28;20052;-61
2023/10/20 01:08:28;;;;;;;2.33;1.10;;;;;;;;;;5035927;28;20049;-61
2023/10/20 01:10:54;;;;;;;2.17;1.00;;;;;;;;;;5033648;28;20130;-60
2023/10/20 01:13:21;;;;;;;2.10;1.10;;;;;;;;;;5032551;28;20037;-60
2023/10/20 01:15:47;;;;;;;1.88;0.93;;;;;;;;;;5031528;28;20903;-60
2023/10/20 01:18:14;;;;;;;1.98;0.82;;;;;;;;;;5034038;28;20056;-60
2023/10/20 01:20:40;;;;;;;2.10;1.10;;;;;;;;;;5032606;28;20064;-61
2023/10/20 01:23:05;;;;;;;2.20;1.00;;;;;;;;;;5034607;28;20037;-61
2023/10/20 01:25:31;;;;;;;2.15;1.10;;;;;;;;;;5034313;28;20554;-60
2023/10/20 01:27:56;;;;;;;2.35;1.15;;;;;;;;;;5032068;28;20074;-59
2023/10/20 01:30:22;;;;;;;2.45;1.00;;;;;;;;;;5034452;28;20049;-59
2023/10/20 01:32:48;;;;;;;3.58;1.08;;;;;;;;;;5031000;28;20038;-60
2023/10/20 01:35:13;;;;;;;2.47;1.10;;;;;;;;;;5030013;28;20044;-61
2023/10/20 01:37:40;;;;;;;3.08;1.30;;;;;;;;;;5035366;28;20482;-65
2023/10/20 01:40:07;;;;;;;2.13;1.13;;;;;;;;;;5031631;28;20079;-61
2023/10/20 01:42:33;;;;;;;2.40;1.17;;;;;;;;;;5032961;28;20053;-61
2023/10/20 01:44:58;;;;;;;2.17;1.10;;;;;;;;;;5032861;28;20037;-61
2023/10/20 01:47:24;;;;;;;2.35;1.08;;;;;;;;;;5032138;28;20021;-61
2023/10/20 01:49:50;;;;;;;2.60;1.20;;;;;;;;;;5035224;28;20091;-60
2023/10/20 01:52:16;;;;;;;2.22;1.02;;;;;;;;;;5016442;28;20041;-60
2023/10/20 01:54:41;;;;;;;1.98;0.93;;;;;;;;;;5033694;28;20059;-59
2023/10/20 01:57:08;;;;;;;2.60;1.20;;;;;;;;;;5033357;28;20056;-61
2023/10/20 01:59:34;;;;;;;2.20;1.00;;;;;;;;;;5031659;28;20080;-61
2023/10/20 02:02:00;;;;;;;2.03;0.90;;;;;;;;;;5032965;28;20033;-61
2023/10/20 02:04:25;;;;;;;2.47;1.05;;;;;;;;;;5032564;28;20033;-61
2023/10/20 02:06:51;;;;;;;2.20;1.10;;;;;;;;;;5033257;28;20033;-61
2023/10/20 02:09:17;;;;;;;2.47;1.05;;;;;;;;;;5034783;28;20041;-61
2023/10/20 02:11:42;;;;;;;2.50;1.23;;;;;;;;;;5033005;28;20604;-61
2023/10/20 02:14:08;;;;;;;2.20;1.05;;;;;;;;;;5032226;28;20068;-61
2023/10/20 02:16:34;;;;;;;2.20;1.00;;;;;;;;;;5030459;28;20057;-61
2023/10/20 02:18:59;;;;;;;2.10;1.00;;;;;;;;;;5030055;28;20076;-60
2023/10/20 02:21:25;;;;;;;3.08;0.95;;;;;;;;;;5033434;28;20170;-61
2023/10/20 02:23:51;;;;;;;2.35;1.10;;;;;;;;;;5034971;28;20029;-61
2023/10/20 02:26:16;;;;;;;2.30;1.10;;;;;;;;;;5029694;28;20036;-61
2023/10/20 02:28:42;;;;;;;2.28;1.05;;;;;;;;;;5033356;28;20067;-61
2023/10/20 02:31:17;;;;;;;2.05;0.90;;;;;;;;;;5030219;28;20663;-61
2023/10/20 02:33:43;;;;;;;2.15;0.93;;;;;;;;;;5032327;28;20072;-62
2023/10/20 02:36:08;;;;;;;2.05;0.95;;;;;;;;;;5032299;28;20038;-60
2023/10/20 02:38:34;;;;;;;2.00;0.90;;;;;;;;;;5032563;28;20041;-61
2023/10/20 02:41:00;;;;;;;2.05;1.00;;;;;;;;;;5030691;28;20052;-61
2023/10/20 02:43:26;;;;;;;2.17;1.08;;;;;;;;;;5033658;28;20556;-60
2023/10/20 02:45:55;;;;;;;1.77;0.90;;;;;;;;;;5033834;28;20443;-59
2023/10/20 02:48:21;;;;;;;2.95;1.00;;;;;;;;;;5033125;28;20064;-61
2023/10/20 02:50:47;;;;;;;2.80;1.20;;;;;;;;;;5033764;28;20118;-61
2023/10/20 02:53:15;;;;;;;2.83;1.05;;;;;;;;;;5030876;28;20830;-60
2023/10/20 02:55:41;;;;;;;1.80;0.88;;;;;;;;;;5032786;28;20068;-61
2023/10/20 02:58:07;;;;;;;2.30;1.10;;;;;;;;;;5032472;28;20115;-61
2023/10/20 03:00:33;;;;;;;2.15;0.95;;;;;;;;;;5032200;28;20072;-61
2023/10/20 03:02:59;;;;;;;2.20;1.10;;;;;;;;;;5031227;28;20057;-61
2023/10/20 03:05:34;;;;;;;1.95;1.00;;;;;;;;;;5036427;28;20052;-60
2023/10/20 03:07:59;;;;;;;2.15;1.08;;;;;;;;;;5029684;28;20084;-60
2023/10/20 03:10:25;;;;;;;4.05;1.17;;;;;;;;;;5033243;28;20037;-60
2023/10/20 03:12:51;;;;;;;3.58;1.00;;;;;;;;;;5033632;28;20044;-60
2023/10/20 03:15:16;;;;;;;2.25;1.10;;;;;;;;;;5028301;28;20148;-60
2023/10/20 03:17:42;;;;;;;3.38;1.00;;;;;;;;;;5031518;28;20039;-61
2023/10/20 03:20:14;;;;;;;2.45;1.10;;;;;;;;;;5029695;28;20067;-61
2023/10/20 03:22:40;;;;;;;2.08;1.08;;;;;;;;;;5032635;28;20070;-60
2023/10/20 03:25:08;;;;;;;2.20;1.02;;;;;;;;;;5029963;28;20087;-60
2023/10/20 03:27:33;;;;;;;2.00;0.98;;;;;;;;;;5030145;28;20114;-60
2023/10/20 03:29:59;;;;;;;2.50;1.00;;;;;;;;;;5028597;28;20445;-61
2023/10/20 03:32:24;;;;;;;2.20;1.10;;;;;;;;;;5030932;28;20047;-61
2023/10/20 03:34:50;;;;;;;2.50;1.10;;;;;;;;;;5033036;28;20037;-60
2023/10/20 03:37:16;;;;;;;2.10;1.00;;;;;;;;;;5030063;28;20044;-61
2023/10/20 03:39:43;;;;;;;2.13;1.00;;;;;;;;;;5031372;28;20119;-61
2023/10/20 03:42:11;;;;;;;2.47;1.08;;;;;;;;;;5029073;28;20064;-61
2023/10/20 03:44:37;;;;;;;2.30;1.00;;;;;;;;;;5028215;28;20060;-61
2023/10/20 03:47:05;;;;;;;2.63;0.98;;;;;;;;;;5028382;28;20068;-61
2023/10/20 03:49:33;;;;;;;2.50;1.20;;;;;;;;;;5035932;28;20069;-61
2023/10/20 03:51:59;;;;;;;2.28;1.10;;;;;;;;;;5034917;28;20049;-61
2023/10/20 03:54:25;;;;;;;2.17;1.02;;;;;;;;;;5034908;28;20036;-61
2023/10/20 03:56:51;;;;;;;1.90;0.95;;;;;;;;;;5034943;28;20090;-61
2023/10/20 03:59:17;;;;;;;2.42;1.20;;;;;;;;;;5034548;28;20155;-60
2023/10/20 04:01:42;;;;;;;2.20;1.10;;;;;;;;;;5033285;28;20119;-61
2023/10/20 04:04:09;;;;;;;2.55;1.02;;;;;;;;;;5032568;28;20516;-61
2023/10/20 04:06:36;;;;;;;2.15;0.80;;;;;;;;;;5033089;28;20061;-60
2023/10/20 04:09:07;;;;;;;2.13;0.95;;;;;;;;;;5032481;28;20216;-61
2023/10/20 04:11:34;;;;;;;3.20;1.00;;;;;;;;;;5034866;28;20099;-61
2023/10/20 04:14:05;;;;;;;1.88;0.90;;;;;;;;;;5030352;28;20894;-61
2023/10/20 04:16:33;;;;;;;2.38;1.10;;;;;;;;;;5035458;28;20123;-61
2023/10/20 04:18:58;;;;;;;2.00;1.00;;;;;;;;;;5034900;28;20076;-60
2023/10/20 04:21:26;;;;;;;2.22;0.93;;;;;;;;;;5033724;28;20097;-61
2023/10/20 04:23:51;;;;;;;2.38;1.15;;;;;;;;;;5034882;28;20065;-61
2023/10/20 04:26:21;;;;;;;2.40;1.05;;;;;;;;;;5032934;28;20033;-59
2023/10/20 04:28:48;;;;;;;2.30;1.20;;;;;;;;;;5036538;28;20467;-60
2023/10/20 04:42:45;;;;;;;2.35;1.15;;;;;;;;;;5032215;28;20079;-61
2023/10/20 04:53:45;;;;;;;3.03;0.95;;;;;;;;;;5032628;28;20118;-61
2023/10/20 04:58:53;;;;;;;1.95;1.00;;;;;;;;;;5033601;28;20048;-61
2023/10/20 05:01:28;;;;;;;2.20;1.08;;;;;;;;;;5033933;28;20138;-60
2023/10/20 05:03:57;;;;;;;;;;;;;;;;;;5031804;28;20061;-59
2023/10/20 05:06:24;;;;;;;2.42;1.10;;;;;;;;;;5035765;28;19947;-61
2023/10/20 05:08:50;;;;;;;2.17;1.00;;;;;;;;;;5032568;28;20056;-61
2023/10/20 05:11:15;;;;;;;2.35;1.08;;;;;;;;;;5032868;28;20080;-61
2023/10/20 05:13:41;;;;;;;3.72;0.98;;;;;;;;;;5033900;28;20442;-60
2023/10/20 05:16:09;;;;;;;2.53;1.10;;;;;;;;;;5030007;28;20044;-61
2023/10/20 05:18:38;;;;;;;2.40;1.10;;;;;;;;;;5030622;28;20069;-61
2023/10/20 05:21:12;;;;;;;2.58;1.10;;;;;;;;;;5032316;28;20068;-60
2023/10/20 05:23:37;;;;;;;2.30;1.08;;;;;;;;;;5032654;28;20088;-61
2023/10/20 05:26:03;;;;;;;2.17;0.95;;;;;;;;;;5030051;28;20498;-61
2023/10/20 05:28:32;;;;;;;5.00;1.10;;;;;;;;;;5031917;28;20047;-59
2023/10/20 05:30:57;;;;;;;3.03;0.98;;;;;;;;;;5033172;28;20679;-61
2023/10/20 05:33:25;;;;;;;2.35;1.10;;;;;;;;;;5029548;28;20045;-60
2023/10/20 05:35:50;;;;;;;2.30;0.90;;;;;;;;;;5031720;28;20061;-59
2023/10/20 05:38:16;;;;;;;2.25;0.90;;;;;;;;;;5033049;28;20052;-60
2023/10/20 05:40:42;;;;;;;6.00;1.17;;;;;;;;;;5031595;28;20043;-61
2023/10/20 05:43:08;;;;;;;2.17;1.05;;;;;;;;;;5031893;28;20091;-61
2023/10/20 05:45:39;;;;;;;2.38;1.00;;;;;;;;;;5036802;28;20048;-59
2023/10/20 05:48:06;;;;;;;2.10;0.88;;;;;;;;;;5032005;28;20590;-61
2023/10/20 05:50:38;;;;;;;2.42;1.02;;;;;;;;;;5031105;28;20797;-61
2023/10/20 05:53:04;;;;;;;2.10;1.00;;;;;;;;;;5030285;28;20756;-61
2023/10/20 05:55:30;;;;;;;2.00;0.90;;;;;;;;;;5030492;28;20041;-61
2023/10/20 05:57:56;;;;;;;2.75;1.00;;;;;;;;;;5032745;28;20068;-61
2023/10/20 06:00:21;;;;;;;2.22;0.90;;;;;;;;;;5032891;28;20033;-61
2023/10/20 06:02:47;;;;;;;2.92;1.13;;;;;;;;;;5035303;28;20344;-61
2023/10/20 06:05:16;;;;;;;2.78;0.98;;;;;;;;;;5032971;28;20107;-60
2023/10/20 06:07:42;;;;;;;2.40;0.88;;;;;;;;;;5033814;28;20057;-61
2023/10/20 06:10:22;;;;;;;2.42;1.10;;;;;;;;;;5031581;28;20052;-60
2023/10/20 06:12:49;;;;;;;1.92;0.90;;;;;;;;;;5031581;28;20072;-60
2023/10/20 06:15:15;;;;;;;1.98;0.93;;;;;;;;;;5030151;28;20060;-61
2023/10/20 06:17:41;;;;;;;2.85;0.88;;;;;;;;;;5032227;28;20072;-60
2023/10/20 06:20:09;;;;;;;2.50;0.98;;;;;;;;;;5030152;28;20061;-60
2023/10/20 06:22:34;;;;;;;2.40;0.90;;;;;;;;;;5029606;28;20064;-61
2023/10/20 06:25:00;;;;;;;1.90;0.90;;;;;;;;;;5035425;28;20071;-61
2023/10/20 06:27:26;;;;;;;2.20;1.00;;;;;;;;;;5031746;28;20428;-61
2023/10/20 06:30:05;;;;;;;2.20;0.90;;;;;;;;;;5029896;28;20025;-59
2023/10/20 06:32:45;;;;;;;2.35;0.90;;;;;;;;;;5033967;28;20756;-61
2023/10/20 06:35:12;;;;;;;2.80;1.10;;;;;;;;;;5031799;28;20057;-60
2023/10/20 06:37:51;;;;;;;3.17;1.05;;;;;;;;;;5032215;28;20122;-61
2023/10/20 06:40:17;;;;;;;2.35;0.98;;;;;;;;;;5033523;28;20075;-61
2023/10/20 06:42:43;;;;;;;2.20;1.00;;;;;;;;;;5030471;28;20033;-60
2023/10/20 06:45:10;;;;;;;3.72;1.05;;;;;;;;;;5029283;28;20068;-61
2023/10/20 06:47:35;;;;;;;3.00;1.00;;;;;;;;;;5032629;28;20057;-61
2023/10/20 06:50:01;;;;;;;1.95;0.80;;;;;;;;;;5029879;28;20102;-59
2023/10/20 06:52:27;;;;;;;2.78;1.20;;;;;;;;;;5033544;28;20124;-59
2023/10/20 06:54:56;;;;;;;3.17;1.20;;;;;;;;;;5033187;28;20038;-58
2023/10/20 06:57:24;;;;;;;2.70;1.27;;;;;;;;;;5031356;28;20059;-59
2023/10/20 06:59:49;;;;;;;2.80;1.30;;;;;;;;;;5033329;28;20110;-59
2023/10/20 07:02:15;;;;;;;2.50;1.02;;;;;;;;;;5037402;28;20819;-61
2023/10/20 07:04:41;;;;;;;5.07;1.02;;;;;;;;;;5033755;28;20095;-61
2023/10/20 07:07:13;;;;;;;3.78;1.10;;;;;;;;;;5033046;28;20065;-61
2023/10/20 07:09:40;;;;;;;3.85;1.10;;;;;;;;;;5032292;28;20122;-58
2023/10/20 07:12:06;;;;;;;3.00;1.30;;;;;;;;;;5029336;28;20060;-62
2023/10/20 07:14:35;;;;;;;4.60;1.15;;;;;;;;;;5032448;28;20072;-61
2023/10/20 07:17:05;;;;;;;9.02;1.42;;;;;;;;;;5031844;28;20455;-62
2023/10/20 07:19:31;;;;;;;4.57;1.38;;;;;;;;;;5030932;28;20064;-62
2023/10/20 07:21:57;;;;;;;3.25;1.00;;;;;;;;;;5035250;28;20132;-62
2023/10/20 07:24:23;;;;;;;11.82;1.50;;;;;;;;;;5035012;28;20100;-61
2023/10/20 07:26:49;;;;;;;5.80;1.33;;;;;;;;;;5033708;28;20065;-61
2023/10/20 07:29:14;;;;;;;3.65;1.30;;;;;;;;;;5034947;28;20584;-62
2023/10/20 07:31:40;;;;;;;10.73;1.48;;;;;;;;;;5034809;28;20072;-61
2023/10/20 07:34:09;;;;;;;7.97;1.40;;;;;;;;;;5036330;28;20088;-61
2023/10/20 07:36:35;;;;;;;5.35;1.40;;;;;;;;;;5033477;28;20076;-62
2023/10/20 07:39:01;;;;;;;5.25;1.33;;;;;;;;;;5035351;28;20068;-61
2023/10/20 07:41:26;;;;;;;3.60;1.02;;;;;;;;;;5034378;28;20033;-61
2023/10/20 07:43:52;;;;;;;3.78;1.77;;;;;;;;;;5032332;28;20087;-62
2023/10/20 07:46:18;;;;;;;7.95;1.55;;;;;;;;;;5033734;28;21826;-62
2023/10/20 07:48:44;;;;;;;7.93;2.13;;;;;;;;;;5033619;28;20045;-62
2023/10/20 07:51:09;;;;;;;8.32;2.03;;;;;;;;;;5031991;28;20048;-64
2023/10/20 07:53:35;;;;;;;8.93;1.77;;;;;;;;;;5031437;28;20094;-61
2023/10/20 07:56:00;;;;;;;6.68;1.67;;;;;;;;;;5035795;28;20021;-62
2023/10/20 07:58:26;;;;;;;6.95;1.98;;;;;;;;;;5031440;28;20553;-62
2023/10/20 08:00:52;;;;;;;6.13;2.08;;;;;;;;;;5032553;28;20046;-61
2023/10/20 08:03:17;;;;;;;11.60;1.98;;;;;;;;;;5032654;28;20041;-61
2023/10/20 08:05:43;;;;;;;6.15;1.85;;;;;;;;;;5036055;28;20576;-61
2023/10/20 08:08:08;;;;;;;9.77;2.20;;;;;;;;;;5036841;28;20091;-61
2023/10/20 08:10:35;;;;;;;31.45;2.50;;;;;;;;;;5038935;28;20029;-61
2023/10/20 08:13:02;;;;;;;5.60;1.80;;;;;;;;;;5037698;28;20107;-61
2023/10/20 08:15:28;;;;;;;8.23;2.15;;;;;;;;;;5037188;28;20633;-61
2023/10/20 08:17:56;;;;;;;9.82;2.38;;;;;;;;;;5035270;28;20045;-61
2023/10/20 08:20:22;;;;;;;7.65;2.30;;;;;;;;;;5038231;28;20065;-61
2023/10/20 08:22:48;;;;;;;8.93;2.65;;;;;;;;;;5033873;28;20034;-61
2023/10/20 08:25:13;;;;;;;8.00;1.88;;;;;;;;;;5037872;28;20037;-61
2023/10/20 08:27:39;;;;;;;4.97;2.40;;;;;;;;;;5035396;28;20127;-61
2023/10/20 08:30:05;;;;;;;9.10;1.83;;;;;;;;;;5035813;28;20061;-60
2023/10/20 08:32:30;;;;;;;13.68;2.08;;;;;;;;;;5036489;28;20029;-61
2023/10/20 08:34:56;;;;;;;9.30;2.50;;;;;;;;;;5034010;28;20029;-61
2023/10/20 08:37:22;;;;;;;7.47;2.60;;;;;;;;;;5035083;28;20064;-61
2023/10/20 08:39:48;;;;;;;7.88;1.90;;;;;;;;;;5037307;28;20043;-61
2023/10/20 08:42:17;;;;;;;9.38;2.70;;;;;;;;;;5036616;28;20041;-61
2023/10/20 08:44:43;;;;;;;11.95;2.33;;;;;;;;;;5037358;28;20498;-61
2023/10/20 08:47:10;;;;;;;6.85;2.53;;;;;;;;;;5037739;28;20200;-61
2023/10/20 08:49:36;;;;;;;7.65;2.28;;;;;;;;;;5034222;28;20456;-62
2023/10/20 08:52:02;;;;;;;13.23;2.65;;;;;;;;;;5037088;28;20049;-61
2023/10/20 08:54:28;;;;;;;7.30;2.25;;;;;;;;;;5035566;28;20061;-61
2023/10/20 08:56:53;;;;;;;10.95;2.58;;;;;;;;;;5035876;28;20095;-61
2023/10/20 08:59:19;;;;;;;5.80;2.13;;;;;;;;;;5037386;28;20506;-61
2023/10/20 09:01:46;;;;;;;10.80;2.55;;;;;;;;;;5032017;28;20041;-61
2023/10/20 09:04:25;;;;;;;6.47;2.35;;;;;;;;;;5036013;28;20072;-61
2023/10/20 09:06:52;;;;;;;6.45;2.30;;;;;;;;;;5036284;28;20069;-61
2023/10/20 09:09:17;;;;;;;9.23;2.17;;;;;;;;;;5031506;28;20064;-61
2023/10/20 09:11:45;;;;;;;7.53;2.47;;;;;;;;;;5036367;28;20064;-60
2023/10/20 09:14:12;;;;;;;7.53;2.30;;;;;;;;;;5034276;28;20037;-61
2023/10/20 09:16:38;;;;;;;7.70;2.35;;;;;;;;;;5031102;28;20068;-61
2023/10/20 09:19:04;;;;;;;7.50;2.40;;;;;;;;;;5029866;28;20565;-61
2023/10/20 09:21:29;;;;;;;6.13;2.10;;;;;;;;;;5032111;28;20037;-61
2023/10/20 09:24:02;;;;;;;7.35;2.47;;;;;;;;;;5032699;28;20086;-61
2023/10/20 09:26:29;;;;;;;6.68;2.17;;;;;;;;;;5032866;28;20499;-61
2023/10/20 09:28:55;;;;;;;4.45;2.00;;;;;;;;;;5032269;28;20065;-62
2023/10/20 09:31:21;;;;;;;6.15;2.65;;;;;;;;;;5032512;28;20033;-64
2023/10/20 09:33:47;;;;;;;7.82;2.08;;;;;;;;;;5033215;28;20107;-61
2023/10/20 09:36:13;;;;;;;6.80;2.10;;;;;;;;;;5032557;28;20523;-62
2023/10/20 09:38:38;;;;;;;4.68;2.00;;;;;;;;;;5027892;28;20509;-62
2023/10/20 09:41:11;;;;;;;11.77;2.08;;;;;;;;;;5030844;28;20038;-61
2023/10/20 09:43:40;;;;;;;5.60;2.05;;;;;;;;;;5032169;28;20148;-60
2023/10/20 09:46:28;;;;;;;3.08;1.58;;;;;;;;;;5030815;28;20494;-62
2023/10/20 09:48:55;;;;;;;5.38;2.40;;;;;;;;;;4974771;28;20060;-61
2023/10/20 09:51:21;;;;;;;3.72;1.80;;;;;;;;;;5029269;28;20163;-62
2023/10/20 09:53:47;;;;;;;4.63;1.95;;;;;;;;;;5030145;28;20045;-61
2023/10/20 09:56:14;;;;;;;8.27;2.15;;;;;;;;;;5031342;28;20107;-60
2023/10/20 09:58:42;;;;;;;5.05;2.25;;;;;;;;;;5031822;28;20133;-62
2023/10/20 10:01:12;;;;;;;4.03;2.15;;;;;;;;;;5028722;28;20689;-62
2023/10/20 10:03:39;;;;;;;4.90;1.88;;;;;;;;;;5030084;28;20142;-61
2023/10/20 10:06:09;;;;;;;7.60;2.17;;;;;;;;;;5028203;28;20071;-62
2023/10/20 10:08:39;;;;;;;6.97;2.00;;;;;;;;;;5030425;28;20065;-61
2023/10/20 10:11:17;;;;;;;6.93;3.13;;;;;;;;;;5030404;28;20076;-62
2023/10/20 10:13:43;;;;;;;8.70;2.15;;;;;;;;;;5030542;28;20136;-61
2023/10/20 10:16:09;;;;;;;3.47;1.80;;;;;;;;;;5030500;28;20040;-62
2023/10/20 10:18:43;;;;;;;6.68;2.15;;;;;;;;;;5033242;28;20046;-61
2023/10/20 10:21:08;;;;;;;10.27;1.80;;;;;;;;;;5028052;28;20619;-61
2023/10/20 10:23:34;;;;;;;5.78;1.77;;;;;;;;;;5031470;28;20041;-62
2023/10/20 10:25:59;;;;;;;5.68;1.63;;;;;;;;;;5028133;28;20505;-62
2023/10/20 10:28:25;;;;;;;3.35;1.60;;;;;;;;;;5028801;28;20041;-62
2023/10/20 10:30:53;;;;;;;5.40;1.67;;;;;;;;;;5029854;28;20036;-62
2023/10/20 10:33:20;;;;;;;3.08;1.63;;;;;;;;;;5029986;28;20065;-63
2023/10/20 10:35:46;;;;;;;5.30;1.50;;;;;;;;;;5026324;28;20065;-62
2023/10/20 10:38:19;;;;;;;4.13;1.90;;;;;;;;;;5030912;28;20037;-59
2023/10/20 10:40:45;;;;;;;6.20;1.83;;;;;;;;;;5026475;28;20057;-59
2023/10/20 10:43:15;;;;;;;4.93;1.77;;;;;;;;;;5029107;28;20769;-57
2023/10/20 10:45:42;;;;;;;7.25;1.77;;;;;;;;;;5028721;28;20053;-60
2023/10/20 10:48:11;;;;;;;4.82;1.70;;;;;;;;;;5031605;28;20818;-61
2023/10/20 10:50:40;;;;;;;6.45;1.90;;;;;;;;;;5027267;28;20069;-60
2023/10/20 10:53:06;;;;;;;5.32;1.90;;;;;;;;;;5029962;28;20081;-61
2023/10/20 10:55:35;;;;;;;4.43;1.80;;;;;;;;;;5027590;28;20191;-59
2023/10/20 10:58:08;;;;;;;7.47;1.70;;;;;;;;;;5032609;28;20070;-60
2023/10/20 11:00:34;;;;;;;8.32;1.60;;;;;;;;;;5034254;28;20701;-59
2023/10/20 11:03:00;;;;;;;8.18;2.80;;;;;;;;;;5032084;28;20700;-60
2023/10/20 11:05:27;;;;;;;8.00;1.73;;;;;;;;;;5032074;28;20120;-59
2023/10/20 11:07:56;;;;;;;5.25;1.60;;;;;;;;;;5031298;28;20065;-59
2023/10/20 11:10:26;;;;;;;4.80;2.03;;;;;;;;;;5031482;28;20118;-59
2023/10/20 11:12:53;;;;;;;4.15;1.60;;;;;;;;;;5033863;28;20447;-59
2023/10/20 11:15:18;;;;;;;5.95;1.80;;;;;;;;;;5031458;28;20072;-60
2023/10/20 11:17:44;;;;;;;4.95;1.50;;;;;;;;;;5032972;28;20087;-59
2023/10/20 11:20:09;;;;;;;7.90;1.55;;;;;;;;;;5031950;28;20115;-60
2023/10/20 11:22:38;;;;;;;4.22;1.52;;;;;;;;;;5031074;28;20502;-59
2023/10/20 11:25:05;;;;;;;6.50;1.52;;;;;;;;;;5031012;28;20052;-60
2023/10/20 11:27:43;;;;;;;5.10;1.80;;;;;;;;;;5033303;28;20065;-60
2023/10/20 11:30:09;;;;;;;3.85;1.42;;;;;;;;;;5034145;28;20057;-60
2023/10/20 11:32:35;;;;;;;5.72;1.80;;;;;;;;;;5032193;28;20060;-59
2023/10/20 11:35:01;;;;;;;3.58;1.90;;;;;;;;;;5033333;28;20048;-60
2023/10/20 11:37:26;;;;;;;3.47;1.70;;;;;;;;;;5030230;28;20041;-59
2023/10/20 11:39:52;;;;;;;3.40;1.52;;;;;;;;;;5030705;28;20048;-59
2023/10/20 11:42:18;;;;;;;5.93;1.65;;;;;;;;;;5029505;28;20090;-59
2023/10/20 11:44:44;;;;;;;3.47;1.50;;;;;;;;;;5030522;28;20077;-60
2023/10/20 11:47:09;;;;;;;3.92;1.38;;;;;;;;;;5032020;28;20042;-59
2023/10/20 11:49:35;;;;;;;2.70;1.27;;;;;;;;;;5030778;28;20106;-60
2023/10/20 11:52:02;;;;;;;3.85;1.40;;;;;;;;;;5034248;28;20534;-59
2023/10/20 11:54:27;;;;;;;2.75;1.40;;;;;;;;;;5032463;28;20069;-60
2023/10/20 11:56:53;;;;;;;4.03;1.77;;;;;;;;;;5032492;28;20623;-60
2023/10/20 11:59:19;;;;;;;3.47;1.27;;;;;;;;;;5034359;28;20049;-58
2023/10/20 12:01:45;;;;;;;8.63;1.92;;;;;;;;;;5031370;28;20196;-60
2023/10/20 12:04:11;;;;;;;5.10;1.38;;;;;;;;;;5029983;28;20041;-59
2023/10/20 12:06:36;;;;;;;5.00;1.73;;;;;;;;;;5029566;28;20039;-58
2023/10/20 12:09:06;;;;;;;5.65;1.63;;;;;;;;;;5029979;28;20033;-59
2023/10/20 12:11:32;;;;;;;6.18;1.30;;;;;;;;;;5033546;28;20954;-60
2023/10/20 12:13:58;;;;;;;3.15;1.60;;;;;;;;;;5029924;28;20129;-59
2023/10/20 12:16:25;;;;;;;3.05;1.30;;;;;;;;;;5031038;28;20591;-59
2023/10/20 12:18:51;;;;;;;3.95;1.38;;;;;;;;;;5033297;28;20463;-59
2023/10/20 12:21:17;;;;;;;2.60;1.25;;;;;;;;;;5030791;28;20116;-62
2023/10/20 12:23:43;;;;;;;2.35;1.10;;;;;;;;;;5032596;28;20099;-59
2023/10/20 12:26:08;;;;;;;2.55;1.40;;;;;;;;;;5033163;28;20041;-60
2023/10/20 12:28:34;;;;;;;3.63;1.27;;;;;;;;;;5034872;28;20952;-59
2023/10/20 12:31:00;;;;;;;3.78;1.50;;;;;;;;;;5032501;28;20141;-58
2023/10/20 12:33:27;;;;;;;3.08;1.60;;;;;;;;;;5030744;28;20049;-60
2023/10/20 12:35:55;;;;;;;3.58;1.60;;;;;;;;;;5033709;28;20060;-60
2023/10/20 12:38:21;;;;;;;2.95;1.48;;;;;;;;;;5033520;28;20138;-59
2023/10/20 12:40:48;;;;;;;3.45;1.23;;;;;;;;;;5030817;28;20140;-60
2023/10/20 12:43:14;;;;;;;5.55;1.50;;;;;;;;;;5033313;28;20584;-61
2023/10/20 12:45:40;;;;;;;2.90;1.45;;;;;;;;;;5030777;28;20033;-59
2023/10/20 12:48:06;;;;;;;3.20;1.40;;;;;;;;;;5034038;28;20064;-58
2023/10/20 12:50:36;;;;;;;3.13;1.20;;;;;;;;;;5032796;28;20036;-59
2023/10/20 12:53:04;;;;;;;3.40;1.38;;;;;;;;;;5034046;28;20075;-59
2023/10/20 12:55:32;;;;;;;4.00;1.60;;;;;;;;;;5029331;28;20076;-60
2023/10/20 12:57:58;;;;;;;3.80;1.45;;;;;;;;;;5028128;28;20067;-59
2023/10/20 13:00:26;;;;;;;3.80;1.58;;;;;;;;;;5030948;28;20057;-59
2023/10/20 13:02:52;;;;;;;3.97;1.42;;;;;;;;;;5030993;28;20463;-59
2023/10/20 13:05:18;;;;;;;2.47;1.20;;;;;;;;;;5031306;28;20069;-59
2023/10/20 13:07:44;;;;;;;2.42;1.15;;;;;;;;;;5031585;28;20124;-60
2023/10/20 13:10:10;;;;;;;4.30;1.40;;;;;;;;;;5030857;28;20530;-60
2023/10/20 13:12:36;;;;;;;4.28;1.35;;;;;;;;;;5029523;28;20067;-60
2023/10/20 13:15:02;;;;;;;3.38;1.55;;;;;;;;;;5028605;28;20065;-60
2023/10/20 13:17:30;;;;;;;2.67;1.38;;;;;;;;;;5031926;28;20079;-60
2023/10/20 13:19:56;;;;;;;3.25;1.48;;;;;;;;;;5029272;28;20098;-60
2023/10/20 13:22:24;;;;;;;3.05;1.40;;;;;;;;;;5030731;28;20041;-60
2023/10/20 13:24:50;;;;;;;4.05;1.15;;;;;;;;;;5030506;28;20069;-61
2023/10/20 13:27:16;;;;;;;5.60;1.33;;;;;;;;;;5033298;28;20157;-60
2023/10/20 13:29:42;;;;;;;4.00;1.60;;;;;;;;;;5032114;28;20107;-60
2023/10/20 13:32:07;;;;;;;2.65;1.08;;;;;;;;;;5032043;28;20122;-60
2023/10/20 13:34:33;;;;;;;3.00;1.30;;;;;;;;;;5033107;28;20106;-61
2023/10/20 13:36:59;;;;;;;2.85;1.20;;;;;;;;;;5033392;28;20073;-59
2023/10/20 13:39:25;;;;;;;2.42;0.98;;;;;;;;;;5032244;28;20046;-59
2023/10/20 13:41:51;;;;;;;3.30;1.38;;;;;;;;;;5034125;28;20068;-60
2023/10/20 13:44:16;;;;;;;3.13;1.40;;;;;;;;;;5034716;28;20036;-61
2023/10/20 13:46:42;;;;;;;3.15;1.40;;;;;;;;;;5019564;28;20055;-60
2023/10/20 13:49:08;;;;;;;4.47;1.13;;;;;;;;;;5034304;28;20057;-61
2023/10/20 13:51:34;;;;;;;2.55;1.25;;;;;;;;;;5034229;28;20033;-60
2023/10/20 13:53:59;;;;;;;4.18;1.13;;;;;;;;;;5031957;28;20120;-61
2023/10/20 13:56:25;;;;;;;2.63;1.17;;;;;;;;;;5035041;28;20033;-60
2023/10/20 13:58:51;;;;;;;3.97;1.48;;;;;;;;;;5034031;28;20041;-60
2023/10/20 14:01:17;;;;;;;3.53;1.33;;;;;;;;;;5033373;28;20083;-59
2023/10/20 14:03:44;;;;;;;3.70;1.30;;;;;;;;;;5032087;28;20498;-60
2023/10/20 14:06:10;;;;;;;4.13;1.48;;;;;;;;;;5034551;28;20064;-60
2023/10/20 14:08:37;;;;;;;3.53;1.23;;;;;;;;;;5032036;28;20139;-63
2023/10/20 14:11:05;;;;;;;4.15;1.00;;;;;;;;;;5026985;28;20393;-60
2023/10/20 14:13:31;;;;;;;3.05;1.30;;;;;;;;;;5026901;28;20073;-59
2023/10/20 14:15:57;;;;;;;2.95;1.30;;;;;;;;;;5027124;28;20040;-60
2023/10/20 14:18:23;;;;;;;2.80;1.40;;;;;;;;;;5027952;28;20079;-60
2023/10/20 14:20:48;;;;;;;3.45;1.13;;;;;;;;;;5030934;28;20037;-58
2023/10/20 14:23:17;;;;;;;5.13;1.55;;;;;;;;;;5030773;28;20064;-59
2023/10/20 14:25:43;;;;;;;3.55;0.95;;;;;;;;;;5029924;28;20094;-60
2023/10/20 14:28:08;;;;;;;2.22;1.00;;;;;;;;;;5031577;28;20036;-59
2023/10/20 14:30:34;;;;;;;2.47;1.13;;;;;;;;;;5030155;28;20049;-59
2023/10/20 14:33:00;;;;;;;3.70;1.13;;;;;;;;;;5027790;28;20056;-60
2023/10/20 14:35:25;;;;;;;6.20;1.30;;;;;;;;;;5027400;28;20037;-60
2023/10/20 14:37:51;;;;;;;3.15;1.10;;;;;;;;;;5030494;28;20041;-58
2023/10/20 14:40:17;;;;;;;2.58;1.20;;;;;;;;;;5030456;28;20032;-60
2023/10/20 14:42:42;;;;;;;4.57;1.27;;;;;;;;;;5030981;28;20037;-59
2023/10/20 14:45:09;;;;;;;2.80;1.08;;;;;;;;;;5029318;28;20570;-59
2023/10/20 14:47:35;;;;;;;3.38;1.85;;;;;;;;;;5028161;28;20068;-60
2023/10/20 14:50:00;;;;;;;3.97;1.30;;;;;;;;;;5029525;28;20148;-60
2023/10/20 14:52:29;;;;;;;3.22;1.10;;;;;;;;;;5027627;28;20033;-60
2023/10/20 14:54:54;;;;;;;3.83;0.90;;;;;;;;;;5026498;28;20080;-68
2023/10/20 14:57:20;;;;;;;4.07;1.13;;;;;;;;;;5028351;28;20041;-58
2023/10/20 14:59:46;;;;;;;2.67;0.90;;;;;;;;;;5030080;28;20045;-60
2023/10/20 15:02:11;;;;;;;4.25;1.20;;;;;;;;;;5030402;28;20111;-60